sensor_id;sensor_type;location;lat;lon;timestamp;P1;durP1;ratioP1;P2;durP2;ratioP2
39266;SDS011;24967;51.154;13.812;2022-10-17T06:43:15;38.53;;;27.33;;
39266;SDS011;24967;51.154;13.812;2022-10-17T06:45:42;40.05;;;27.77;;
39266;SDS011;24967;51.154;13.812;2022-10-17T06:48:12;40.15;;;27.80;;
39266;SDS011;24967;51.154;13.812;2022-10-17T06:50:39;39.88;;;28.35;;
39266;SDS011;24967;51.154;13.812;2022-10-17T06:53:06;41.33;;;27.92;;
39266;SDS011;24967;51.154;13.812;2022-10-17T06:55:33;41.40;;;27.42;;
39266;SDS011;24967;51.154;13.812;2022-10-17T06:58:00;38.55;;;26.67;;
39266;SDS011;24967;51.154;13.812;2022-10-17T07:00:30;42.28;;;27.55;;
39266;SDS011;24967;51.154;13.812;2022-10-17T07:02:57;36.83;;;26.15;;
39266;SDS011;24967;51.154;13.812;2022-10-17T07:05:24;37.30;;;27.60;;
39266;SDS011;24967;51.154;13.812;2022-10-17T07:07:52;36.38;;;26.73;;
39266;SDS011;24967;51.154;13.812;2022-10-17T07:10:18;35.92;;;25.40;;
39266;SDS011;24967;51.154;13.812;2022-10-17T07:12:46;36.55;;;25.83;;
39266;SDS011;24967;51.154;13.812;2022-10-17T07:15:14;36.28;;;25.67;;
39266;SDS011;24967;51.154;13.812;2022-10-17T07:17:42;34.08;;;25.13;;
39266;SDS011;24967;51.154;13.812;2022-10-17T07:20:13;34.25;;;25.50;;
39266;SDS011;24967;51.154;13.812;2022-10-17T07:22:41;37.50;;;25.58;;
39266;SDS011;24967;51.154;13.812;2022-10-17T07:25:08;37.28;;;25.48;;
39266;SDS011;24967;51.154;13.812;2022-10-17T07:27:35;33.17;;;23.25;;
39266;SDS011;24967;51.154;13.812;2022-10-17T07:30:03;35.60;;;24.23;;
39266;SDS011;24967;51.154;13.812;2022-10-17T07:32:32;33.30;;;23.88;;
39266;SDS011;24967;51.154;13.812;2022-10-17T07:35:00;34.80;;;23.30;;
39266;SDS011;24967;51.154;13.812;2022-10-17T07:37:27;34.75;;;23.63;;
39266;SDS011;24967;51.154;13.812;2022-10-17T07:39:55;32.55;;;23.60;;
39266;SDS011;24967;51.154;13.812;2022-10-17T07:42:23;37.42;;;23.83;;
39266;SDS011;24967;51.154;13.812;2022-10-17T07:44:52;32.55;;;22.60;;
39266;SDS011;24967;51.154;13.812;2022-10-17T07:47:19;30.00;;;23.33;;
39266;SDS011;24967;51.154;13.812;2022-10-17T07:49:46;36.85;;;24.23;;
39266;SDS011;24967;51.154;13.812;2022-10-17T07:52:15;29.88;;;22.17;;
39266;SDS011;24967;51.154;13.812;2022-10-17T07:54:42;34.47;;;24.27;;
39266;SDS011;24967;51.154;13.812;2022-10-17T07:57:09;32.42;;;23.15;;
39266;SDS011;24967;51.154;13.812;2022-10-17T07:59:36;32.75;;;24.60;;
39266;SDS011;24967;51.154;13.812;2022-10-17T08:02:04;35.25;;;23.83;;
39266;SDS011;24967;51.154;13.812;2022-10-17T08:04:32;30.98;;;21.83;;
39266;SDS011;24967;51.154;13.812;2022-10-17T08:07:01;33.05;;;23.23;;
39266;SDS011;24967;51.154;13.812;2022-10-17T08:09:31;31.23;;;22.85;;
39266;SDS011;24967;51.154;13.812;2022-10-17T08:11:59;31.02;;;22.58;;
39266;SDS011;24967;51.154;13.812;2022-10-17T08:14:27;28.60;;;22.27;;
39266;SDS011;24967;51.154;13.812;2022-10-17T08:16:55;30.45;;;22.77;;
39266;SDS011;24967;51.154;13.812;2022-10-17T08:19:23;29.17;;;21.50;;
39266;SDS011;24967;51.154;13.812;2022-10-17T08:21:51;23.67;;;20.30;;
39266;SDS011;24967;51.154;13.812;2022-10-17T08:24:20;31.60;;;20.50;;
39266;SDS011;24967;51.154;13.812;2022-10-17T08:26:49;27.83;;;20.08;;
39266;SDS011;24967;51.154;13.812;2022-10-17T08:29:17;24.35;;;19.90;;
39266;SDS011;24967;51.154;13.812;2022-10-17T08:31:45;26.00;;;19.48;;
39266;SDS011;24967;51.154;13.812;2022-10-17T08:34:12;26.23;;;19.50;;
39266;SDS011;24967;51.154;13.812;2022-10-17T08:36:39;23.70;;;18.90;;
39266;SDS011;24967;51.154;13.812;2022-10-17T08:39:07;26.85;;;20.65;;
39266;SDS011;24967;51.154;13.812;2022-10-17T08:41:37;29.67;;;19.65;;
39266;SDS011;24967;51.154;13.812;2022-10-17T08:44:16;26.25;;;19.20;;
39266;SDS011;24967;51.154;13.812;2022-10-17T08:46:57;28.52;;;18.48;;
39266;SDS011;24967;51.154;13.812;2022-10-17T08:49:33;23.05;;;17.98;;
39266;SDS011;24967;51.154;13.812;2022-10-17T08:52:05;24.85;;;19.38;;
39266;SDS011;24967;51.154;13.812;2022-10-17T08:54:39;23.38;;;19.10;;
39266;SDS011;24967;51.154;13.812;2022-10-17T08:57:10;21.85;;;17.95;;
39266;SDS011;24967;51.154;13.812;2022-10-17T08:59:41;24.08;;;18.08;;
39266;SDS011;24967;51.154;13.812;2022-10-17T09:02:21;20.70;;;17.63;;
39266;SDS011;24967;51.154;13.812;2022-10-17T09:08:00;21.35;;;17.40;;
39266;SDS011;24967;51.154;13.812;2022-10-17T09:10:35;21.75;;;17.50;;
39266;SDS011;24967;51.154;13.812;2022-10-17T09:13:15;22.13;;;17.52;;
39266;SDS011;24967;51.154;13.812;2022-10-17T09:16:00;20.52;;;17.30;;
39266;SDS011;24967;51.154;13.812;2022-10-17T09:18:36;21.88;;;18.23;;
39266;SDS011;24967;51.154;13.812;2022-10-17T09:21:09;21.27;;;18.00;;
39266;SDS011;24967;51.154;13.812;2022-10-17T09:23:44;24.23;;;18.52;;
39266;SDS011;24967;51.154;13.812;2022-10-17T09:26:15;21.48;;;17.08;;
39266;SDS011;24967;51.154;13.812;2022-10-17T09:28:43;22.30;;;17.50;;
39266;SDS011;24967;51.154;13.812;2022-10-17T09:31:15;20.25;;;17.40;;
39266;SDS011;24967;51.154;13.812;2022-10-17T09:33:47;21.75;;;17.25;;
39266;SDS011;24967;51.154;13.812;2022-10-17T09:36:16;21.50;;;17.52;;
39266;SDS011;24967;51.154;13.812;2022-10-17T09:38:46;21.02;;;16.00;;
39266;SDS011;24967;51.154;13.812;2022-10-17T09:41:17;21.80;;;16.58;;
39266;SDS011;24967;51.154;13.812;2022-10-17T09:43:46;19.20;;;16.50;;
39266;SDS011;24967;51.154;13.812;2022-10-17T09:46:16;17.98;;;16.02;;
39266;SDS011;24967;51.154;13.812;2022-10-17T09:48:49;19.52;;;16.20;;
39266;SDS011;24967;51.154;13.812;2022-10-17T09:51:19;20.98;;;17.58;;
39266;SDS011;24967;51.154;13.812;2022-10-17T09:53:48;19.67;;;15.95;;
39266;SDS011;24967;51.154;13.812;2022-10-17T09:56:19;20.75;;;17.33;;
39266;SDS011;24967;51.154;13.812;2022-10-17T09:58:46;20.45;;;16.35;;
39266;SDS011;24967;51.154;13.812;2022-10-17T10:01:16;18.58;;;16.08;;
39266;SDS011;24967;51.154;13.812;2022-10-17T10:03:45;17.75;;;15.82;;
39266;SDS011;24967;51.154;13.812;2022-10-17T10:06:13;17.65;;;14.88;;
39266;SDS011;24967;51.154;13.812;2022-10-17T10:08:49;18.30;;;15.55;;
39266;SDS011;24967;51.154;13.812;2022-10-17T10:11:18;18.83;;;16.13;;
39266;SDS011;24967;51.154;13.812;2022-10-17T10:13:48;18.35;;;16.08;;
39266;SDS011;24967;51.154;13.812;2022-10-17T10:16:18;21.73;;;14.98;;
39266;SDS011;24967;51.154;13.812;2022-10-17T10:18:48;15.98;;;14.30;;
39266;SDS011;24967;51.154;13.812;2022-10-17T10:21:16;21.02;;;14.98;;
39266;SDS011;24967;51.154;13.812;2022-10-17T10:23:47;15.43;;;13.82;;
39266;SDS011;24967;51.154;13.812;2022-10-17T10:26:31;15.18;;;13.52;;
39266;SDS011;24967;51.154;13.812;2022-10-17T10:29:02;16.92;;;13.70;;
39266;SDS011;24967;51.154;13.812;2022-10-17T10:31:34;15.57;;;13.73;;
39266;SDS011;24967;51.154;13.812;2022-10-17T10:34:10;17.92;;;13.23;;
39266;SDS011;24967;51.154;13.812;2022-10-17T10:36:42;15.52;;;13.20;;
39266;SDS011;24967;51.154;13.812;2022-10-17T10:39:25;14.63;;;13.07;;
39266;SDS011;24967;51.154;13.812;2022-10-17T10:42:05;14.70;;;13.18;;
39266;SDS011;24967;51.154;13.812;2022-10-17T10:44:43;14.98;;;13.32;;
39266;SDS011;24967;51.154;13.812;2022-10-17T10:47:15;15.65;;;13.10;;
39266;SDS011;24967;51.154;13.812;2022-10-17T10:49:45;14.32;;;12.65;;
39266;SDS011;24967;51.154;13.812;2022-10-17T10:52:14;13.70;;;12.30;;
39266;SDS011;24967;51.154;13.812;2022-10-17T10:54:50;14.57;;;12.23;;
39266;SDS011;24967;51.154;13.812;2022-10-17T10:57:24;16.65;;;12.27;;
39266;SDS011;24967;51.154;13.812;2022-10-17T10:59:57;13.88;;;11.60;;
39266;SDS011;24967;51.154;13.812;2022-10-17T11:02:32;14.23;;;11.95;;
39266;SDS011;24967;51.154;13.812;2022-10-17T11:05:05;13.98;;;12.00;;
39266;SDS011;24967;51.154;13.812;2022-10-17T11:07:40;15.82;;;11.38;;
39266;SDS011;24967;51.154;13.812;2022-10-17T11:10:13;13.18;;;11.73;;
39266;SDS011;24967;51.154;13.812;2022-10-17T11:12:45;13.98;;;11.77;;
39266;SDS011;24967;51.154;13.812;2022-10-17T11:15:19;12.45;;;11.15;;
39266;SDS011;24967;51.154;13.812;2022-10-17T11:17:54;12.85;;;11.27;;
39266;SDS011;24967;51.154;13.812;2022-10-17T11:20:26;14.80;;;12.32;;
39266;SDS011;24967;51.154;13.812;2022-10-17T11:23:00;14.55;;;11.82;;
39266;SDS011;24967;51.154;13.812;2022-10-17T11:25:36;13.02;;;11.82;;
39266;SDS011;24967;51.154;13.812;2022-10-17T11:28:09;13.00;;;11.57;;
39266;SDS011;24967;51.154;13.812;2022-10-17T11:30:41;12.63;;;11.40;;
39266;SDS011;24967;51.154;13.812;2022-10-17T11:33:14;12.68;;;11.43;;
39266;SDS011;24967;51.154;13.812;2022-10-17T11:35:46;13.20;;;11.63;;
39266;SDS011;24967;51.154;13.812;2022-10-17T11:38:21;13.70;;;11.50;;
39266;SDS011;24967;51.154;13.812;2022-10-17T11:40:57;13.15;;;11.63;;
39266;SDS011;24967;51.154;13.812;2022-10-17T11:43:26;13.50;;;12.15;;
39266;SDS011;24967;51.154;13.812;2022-10-17T11:45:57;15.70;;;12.25;;
39266;SDS011;24967;51.154;13.812;2022-10-17T11:48:29;15.15;;;12.35;;
39266;SDS011;24967;51.154;13.812;2022-10-17T11:51:04;13.48;;;12.20;;
39266;SDS011;24967;51.154;13.812;2022-10-17T11:53:40;17.77;;;13.25;;
39266;SDS011;24967;51.154;13.812;2022-10-17T11:56:11;15.60;;;12.68;;
39266;SDS011;24967;51.154;13.812;2022-10-17T11:58:45;16.45;;;13.25;;
39266;SDS011;24967;51.154;13.812;2022-10-17T12:01:22;15.32;;;13.07;;
39266;SDS011;24967;51.154;13.812;2022-10-17T12:04:03;14.18;;;12.65;;
39266;SDS011;24967;51.154;13.812;2022-10-17T12:06:50;16.15;;;13.23;;
39266;SDS011;24967;51.154;13.812;2022-10-17T12:09:26;15.10;;;12.77;;
39266;SDS011;24967;51.154;13.812;2022-10-17T12:12:01;14.80;;;12.23;;
39266;SDS011;24967;51.154;13.812;2022-10-17T12:14:36;14.15;;;12.60;;
39266;SDS011;24967;51.154;13.812;2022-10-17T12:17:24;14.55;;;12.48;;
39266;SDS011;24967;51.154;13.812;2022-10-17T12:22:53;13.43;;;12.00;;
39266;SDS011;24967;51.154;13.812;2022-10-17T12:25:21;14.40;;;12.07;;
39266;SDS011;24967;51.154;13.812;2022-10-17T12:27:50;16.38;;;12.38;;
39266;SDS011;24967;51.154;13.812;2022-10-17T12:30:52;13.32;;;12.02;;
39266;SDS011;24967;51.154;13.812;2022-10-17T12:33:29;15.57;;;12.43;;
39266;SDS011;24967;51.154;13.812;2022-10-17T12:42:32;13.82;;;12.48;;
39266;SDS011;24967;51.154;13.812;2022-10-17T12:48:24;13.88;;;12.43;;
39266;SDS011;24967;51.154;13.812;2022-10-17T12:51:28;13.88;;;12.07;;
39266;SDS011;24967;51.154;13.812;2022-10-17T12:53:56;14.32;;;12.57;;
39266;SDS011;24967;51.154;13.812;2022-10-17T12:56:33;14.70;;;12.98;;
39266;SDS011;24967;51.154;13.812;2022-10-17T12:59:05;15.88;;;12.23;;
39266;SDS011;24967;51.154;13.812;2022-10-17T13:01:36;13.38;;;12.07;;
39266;SDS011;24967;51.154;13.812;2022-10-17T13:04:05;13.52;;;12.13;;
39266;SDS011;24967;51.154;13.812;2022-10-17T13:06:37;15.57;;;12.38;;
39266;SDS011;24967;51.154;13.812;2022-10-17T13:09:14;14.40;;;12.27;;
39266;SDS011;24967;51.154;13.812;2022-10-17T13:11:45;15.77;;;13.25;;
39266;SDS011;24967;51.154;13.812;2022-10-17T13:14:15;13.80;;;12.40;;
39266;SDS011;24967;51.154;13.812;2022-10-17T13:16:49;16.60;;;14.27;;
39266;SDS011;24967;51.154;13.812;2022-10-17T13:19:19;14.55;;;13.05;;
39266;SDS011;24967;51.154;13.812;2022-10-17T13:21:50;16.77;;;13.02;;
39266;SDS011;24967;51.154;13.812;2022-10-17T13:24:20;16.98;;;13.13;;
39266;SDS011;24967;51.154;13.812;2022-10-17T13:26:48;16.90;;;13.35;;
39266;SDS011;24967;51.154;13.812;2022-10-17T13:29:15;16.02;;;13.02;;
39266;SDS011;24967;51.154;13.812;2022-10-17T13:31:43;16.25;;;13.18;;
39266;SDS011;24967;51.154;13.812;2022-10-17T13:34:14;15.00;;;13.20;;
39266;SDS011;24967;51.154;13.812;2022-10-17T13:36:44;15.73;;;13.02;;
39266;SDS011;24967;51.154;13.812;2022-10-17T13:39:14;14.13;;;12.80;;
39266;SDS011;24967;51.154;13.812;2022-10-17T13:41:44;15.02;;;13.02;;
39266;SDS011;24967;51.154;13.812;2022-10-17T13:44:11;15.45;;;12.50;;
39266;SDS011;24967;51.154;13.812;2022-10-17T13:46:40;15.63;;;12.88;;
39266;SDS011;24967;51.154;13.812;2022-10-17T13:49:15;15.50;;;13.02;;
39266;SDS011;24967;51.154;13.812;2022-10-17T13:51:47;14.52;;;13.02;;
39266;SDS011;24967;51.154;13.812;2022-10-17T13:54:18;16.17;;;13.32;;
39266;SDS011;24967;51.154;13.812;2022-10-17T13:57:04;16.55;;;13.48;;
39266;SDS011;24967;51.154;13.812;2022-10-17T13:59:33;18.70;;;13.93;;
39266;SDS011;24967;51.154;13.812;2022-10-17T14:02:04;17.75;;;14.40;;
39266;SDS011;24967;51.154;13.812;2022-10-17T14:04:36;16.80;;;13.43;;
39266;SDS011;24967;51.154;13.812;2022-10-17T14:07:04;15.05;;;13.45;;
39266;SDS011;24967;51.154;13.812;2022-10-17T14:09:32;17.30;;;14.52;;
39266;SDS011;24967;51.154;13.812;2022-10-17T14:12:00;17.08;;;14.45;;
39266;SDS011;24967;51.154;13.812;2022-10-17T14:14:32;17.50;;;14.52;;
39266;SDS011;24967;51.154;13.812;2022-10-17T14:16:58;17.55;;;14.60;;
39266;SDS011;24967;51.154;13.812;2022-10-17T14:19:26;18.35;;;14.57;;
39266;SDS011;24967;51.154;13.812;2022-10-17T14:24:48;19.95;;;15.02;;
39266;SDS011;24967;51.154;13.812;2022-10-17T14:27:24;18.33;;;15.35;;
39266;SDS011;24967;51.154;13.812;2022-10-17T14:29:54;20.65;;;15.05;;
39266;SDS011;24967;51.154;13.812;2022-10-17T14:32:25;19.60;;;14.95;;
39266;SDS011;24967;51.154;13.812;2022-10-17T14:34:53;18.25;;;15.32;;
39266;SDS011;24967;51.154;13.812;2022-10-17T14:37:26;19.42;;;16.40;;
39266;SDS011;24967;51.154;13.812;2022-10-17T14:40:00;19.80;;;16.15;;
39266;SDS011;24967;51.154;13.812;2022-10-17T14:42:28;22.27;;;15.25;;
39266;SDS011;24967;51.154;13.812;2022-10-17T14:44:56;22.05;;;16.25;;
39266;SDS011;24967;51.154;13.812;2022-10-17T14:47:28;22.75;;;16.60;;
39266;SDS011;24967;51.154;13.812;2022-10-17T14:50:02;18.77;;;16.48;;
39266;SDS011;24967;51.154;13.812;2022-10-17T14:52:32;22.77;;;15.68;;
39266;SDS011;24967;51.154;13.812;2022-10-17T14:55:11;19.13;;;15.98;;
39266;SDS011;24967;51.154;13.812;2022-10-17T14:57:46;20.20;;;16.63;;
39266;SDS011;24967;51.154;13.812;2022-10-17T15:00:13;21.88;;;16.30;;
39266;SDS011;24967;51.154;13.812;2022-10-17T15:02:40;34.53;;;16.38;;
39266;SDS011;24967;51.154;13.812;2022-10-17T15:05:08;25.63;;;17.80;;
39266;SDS011;24967;51.154;13.812;2022-10-17T15:07:34;22.85;;;17.70;;
39266;SDS011;24967;51.154;13.812;2022-10-17T15:10:03;21.77;;;17.30;;
39266;SDS011;24967;51.154;13.812;2022-10-17T15:12:30;20.38;;;16.67;;
39266;SDS011;24967;51.154;13.812;2022-10-17T15:14:57;21.95;;;16.33;;
39266;SDS011;24967;51.154;13.812;2022-10-17T15:17:25;20.17;;;17.92;;
39266;SDS011;24967;51.154;13.812;2022-10-17T15:19:54;19.67;;;17.55;;
39266;SDS011;24967;51.154;13.812;2022-10-17T15:22:21;24.05;;;17.75;;
39266;SDS011;24967;51.154;13.812;2022-10-17T15:24:48;24.08;;;16.83;;
39266;SDS011;24967;51.154;13.812;2022-10-17T15:27:17;20.48;;;16.80;;
39266;SDS011;24967;51.154;13.812;2022-10-17T15:29:45;19.92;;;16.38;;
39266;SDS011;24967;51.154;13.812;2022-10-17T15:32:12;22.77;;;17.67;;
39266;SDS011;24967;51.154;13.812;2022-10-17T15:34:39;23.25;;;17.85;;
39266;SDS011;24967;51.154;13.812;2022-10-17T15:37:12;20.23;;;15.73;;
39266;SDS011;24967;51.154;13.812;2022-10-17T15:39:41;19.88;;;17.17;;
39266;SDS011;24967;51.154;13.812;2022-10-17T15:42:10;24.08;;;17.75;;
39266;SDS011;24967;51.154;13.812;2022-10-17T15:44:38;20.30;;;16.80;;
39266;SDS011;24967;51.154;13.812;2022-10-17T15:47:08;22.38;;;17.85;;
39266;SDS011;24967;51.154;13.812;2022-10-17T15:49:43;23.70;;;18.20;;
39266;SDS011;24967;51.154;13.812;2022-10-17T15:52:10;23.38;;;17.83;;
39266;SDS011;24967;51.154;13.812;2022-10-17T15:54:36;23.95;;;17.38;;
39266;SDS011;24967;51.154;13.812;2022-10-17T15:57:03;25.67;;;18.02;;
39266;SDS011;24967;51.154;13.812;2022-10-17T15:59:30;23.30;;;18.25;;
39266;SDS011;24967;51.154;13.812;2022-10-17T16:02:01;25.13;;;19.02;;
39266;SDS011;24967;51.154;13.812;2022-10-17T16:04:28;21.48;;;17.80;;
39266;SDS011;24967;51.154;13.812;2022-10-17T16:06:55;23.52;;;18.77;;
39266;SDS011;24967;51.154;13.812;2022-10-17T16:09:21;24.40;;;18.63;;
39266;SDS011;24967;51.154;13.812;2022-10-17T16:11:48;24.05;;;19.13;;
39266;SDS011;24967;51.154;13.812;2022-10-17T16:14:15;27.67;;;19.60;;
39266;SDS011;24967;51.154;13.812;2022-10-17T16:16:42;25.42;;;19.48;;
39266;SDS011;24967;51.154;13.812;2022-10-17T16:19:10;25.27;;;19.30;;
39266;SDS011;24967;51.154;13.812;2022-10-17T16:21:38;25.83;;;18.80;;
39266;SDS011;24967;51.154;13.812;2022-10-17T16:24:08;25.40;;;20.25;;
39266;SDS011;24967;51.154;13.812;2022-10-17T16:26:36;28.73;;;20.52;;
39266;SDS011;24967;51.154;13.812;2022-10-17T16:29:03;29.50;;;19.45;;
39266;SDS011;24967;51.154;13.812;2022-10-17T16:31:30;28.95;;;19.48;;
39266;SDS011;24967;51.154;13.812;2022-10-17T16:33:58;25.33;;;19.05;;
39266;SDS011;24967;51.154;13.812;2022-10-17T16:36:28;26.25;;;20.38;;
39266;SDS011;24967;51.154;13.812;2022-10-17T16:38:55;27.83;;;19.92;;
39266;SDS011;24967;51.154;13.812;2022-10-17T16:41:23;27.80;;;20.70;;
39266;SDS011;24967;51.154;13.812;2022-10-17T16:43:51;27.85;;;19.92;;
39266;SDS011;24967;51.154;13.812;2022-10-17T16:46:19;30.05;;;22.35;;
39266;SDS011;24967;51.154;13.812;2022-10-17T16:48:46;28.13;;;21.20;;
39266;SDS011;24967;51.154;13.812;2022-10-17T16:51:14;28.42;;;20.67;;
39266;SDS011;24967;51.154;13.812;2022-10-17T16:53:43;29.45;;;20.65;;
39266;SDS011;24967;51.154;13.812;2022-10-17T16:56:11;30.90;;;20.23;;
39266;SDS011;24967;51.154;13.812;2022-10-17T16:58:39;27.77;;;19.95;;
39266;SDS011;24967;51.154;13.812;2022-10-17T17:01:07;28.33;;;20.65;;
39266;SDS011;24967;51.154;13.812;2022-10-17T17:03:37;28.65;;;20.80;;
39266;SDS011;24967;51.154;13.812;2022-10-17T17:06:05;27.40;;;19.55;;
39266;SDS011;24967;51.154;13.812;2022-10-17T17:08:34;24.80;;;19.73;;
39266;SDS011;24967;51.154;13.812;2022-10-17T17:11:03;26.42;;;19.05;;
39266;SDS011;24967;51.154;13.812;2022-10-17T17:13:31;30.13;;;22.10;;
39266;SDS011;24967;51.154;13.812;2022-10-17T17:16:02;28.00;;;21.23;;
39266;SDS011;24967;51.154;13.812;2022-10-17T17:18:29;23.90;;;19.52;;
39266;SDS011;24967;51.154;13.812;2022-10-17T17:20:59;31.50;;;21.90;;
39266;SDS011;24967;51.154;13.812;2022-10-17T17:23:26;26.90;;;20.98;;
39266;SDS011;24967;51.154;13.812;2022-10-17T17:25:57;30.10;;;20.85;;
39266;SDS011;24967;51.154;13.812;2022-10-17T17:28:26;31.70;;;22.27;;
39266;SDS011;24967;51.154;13.812;2022-10-17T17:30:53;27.13;;;20.30;;
39266;SDS011;24967;51.154;13.812;2022-10-17T17:33:20;30.83;;;21.40;;
39266;SDS011;24967;51.154;13.812;2022-10-17T17:35:52;29.98;;;22.15;;
39266;SDS011;24967;51.154;13.812;2022-10-17T17:38:20;33.17;;;22.70;;
39266;SDS011;24967;51.154;13.812;2022-10-17T17:40:47;30.00;;;22.10;;
39266;SDS011;24967;51.154;13.812;2022-10-17T17:43:13;33.28;;;23.15;;
39266;SDS011;24967;51.154;13.812;2022-10-17T17:45:42;32.38;;;22.73;;
39266;SDS011;24967;51.154;13.812;2022-10-17T17:48:08;35.05;;;23.95;;
39266;SDS011;24967;51.154;13.812;2022-10-17T17:50:36;37.38;;;24.20;;
39266;SDS011;24967;51.154;13.812;2022-10-17T17:53:04;30.98;;;23.60;;
39266;SDS011;24967;51.154;13.812;2022-10-17T17:55:31;31.48;;;22.58;;
39266;SDS011;24967;51.154;13.812;2022-10-17T17:57:58;31.77;;;22.13;;
39266;SDS011;24967;51.154;13.812;2022-10-17T18:00:25;29.85;;;22.02;;
39266;SDS011;24967;51.154;13.812;2022-10-17T18:02:53;34.13;;;20.98;;
39266;SDS011;24967;51.154;13.812;2022-10-17T18:05:20;34.45;;;23.13;;
39266;SDS011;24967;51.154;13.812;2022-10-17T18:07:47;28.02;;;21.38;;
39266;SDS011;24967;51.154;13.812;2022-10-17T18:10:14;31.05;;;22.17;;
39266;SDS011;24967;51.154;13.812;2022-10-17T18:12:41;33.00;;;22.55;;
39266;SDS011;24967;51.154;13.812;2022-10-17T18:15:08;29.20;;;22.63;;
39266;SDS011;24967;51.154;13.812;2022-10-17T18:17:35;31.58;;;22.90;;
39266;SDS011;24967;51.154;13.812;2022-10-17T18:20:03;32.60;;;21.65;;
39266;SDS011;24967;51.154;13.812;2022-10-17T18:22:30;37.95;;;25.77;;
39266;SDS011;24967;51.154;13.812;2022-10-17T18:24:57;37.00;;;25.40;;
39266;SDS011;24967;51.154;13.812;2022-10-17T18:27:24;32.65;;;23.55;;
39266;SDS011;24967;51.154;13.812;2022-10-17T18:29:50;33.53;;;24.40;;
39266;SDS011;24967;51.154;13.812;2022-10-17T18:32:17;31.45;;;22.25;;
39266;SDS011;24967;51.154;13.812;2022-10-17T18:34:44;31.08;;;21.58;;
39266;SDS011;24967;51.154;13.812;2022-10-17T18:37:12;28.40;;;20.70;;
39266;SDS011;24967;51.154;13.812;2022-10-17T18:39:38;30.30;;;23.08;;
39266;SDS011;24967;51.154;13.812;2022-10-17T18:42:05;33.35;;;21.20;;
39266;SDS011;24967;51.154;13.812;2022-10-17T18:44:32;28.95;;;21.88;;
39266;SDS011;24967;51.154;13.812;2022-10-17T18:46:58;31.80;;;21.67;;
39266;SDS011;24967;51.154;13.812;2022-10-17T18:49:25;29.77;;;20.60;;
39266;SDS011;24967;51.154;13.812;2022-10-17T18:51:52;31.17;;;21.50;;
39266;SDS011;24967;51.154;13.812;2022-10-17T18:54:20;28.45;;;20.38;;
39266;SDS011;24967;51.154;13.812;2022-10-17T18:56:48;28.88;;;20.90;;
39266;SDS011;24967;51.154;13.812;2022-10-17T18:59:16;28.88;;;20.63;;
39266;SDS011;24967;51.154;13.812;2022-10-17T19:01:43;32.40;;;22.05;;
39266;SDS011;24967;51.154;13.812;2022-10-17T19:04:10;30.02;;;21.35;;
39266;SDS011;24967;51.154;13.812;2022-10-17T19:06:37;28.35;;;21.85;;
39266;SDS011;24967;51.154;13.812;2022-10-17T19:09:06;33.25;;;22.77;;
39266;SDS011;24967;51.154;13.812;2022-10-17T19:11:35;28.90;;;21.25;;
39266;SDS011;24967;51.154;13.812;2022-10-17T19:14:04;35.53;;;22.85;;
39266;SDS011;24967;51.154;13.812;2022-10-17T19:16:36;29.13;;;21.70;;
39266;SDS011;24967;51.154;13.812;2022-10-17T19:19:05;30.20;;;21.67;;
39266;SDS011;24967;51.154;13.812;2022-10-17T19:21:33;32.25;;;21.98;;
39266;SDS011;24967;51.154;13.812;2022-10-17T19:24:00;30.73;;;21.17;;
39266;SDS011;24967;51.154;13.812;2022-10-17T19:26:29;32.10;;;22.30;;
39266;SDS011;24967;51.154;13.812;2022-10-17T19:28:58;28.58;;;20.67;;
39266;SDS011;24967;51.154;13.812;2022-10-17T19:31:25;31.23;;;21.35;;
39266;SDS011;24967;51.154;13.812;2022-10-17T19:33:54;35.65;;;21.85;;
39266;SDS011;24967;51.154;13.812;2022-10-17T19:36:22;32.15;;;22.40;;
39266;SDS011;24967;51.154;13.812;2022-10-17T19:38:51;31.20;;;21.67;;
39266;SDS011;24967;51.154;13.812;2022-10-17T19:41:18;30.35;;;21.90;;
39266;SDS011;24967;51.154;13.812;2022-10-17T19:43:46;30.90;;;22.45;;
39266;SDS011;24967;51.154;13.812;2022-10-17T19:46:16;32.42;;;21.85;;
39266;SDS011;24967;51.154;13.812;2022-10-17T19:48:44;30.45;;;23.00;;
39266;SDS011;24967;51.154;13.812;2022-10-17T19:51:11;30.10;;;22.02;;
39266;SDS011;24967;51.154;13.812;2022-10-17T19:53:39;30.75;;;22.15;;
39266;SDS011;24967;51.154;13.812;2022-10-17T19:56:06;27.15;;;21.08;;
39266;SDS011;24967;51.154;13.812;2022-10-17T19:58:33;28.50;;;20.40;;
39266;SDS011;24967;51.154;13.812;2022-10-17T20:01:07;27.73;;;20.33;;
39266;SDS011;24967;51.154;13.812;2022-10-17T20:03:35;29.33;;;20.90;;
39266;SDS011;24967;51.154;13.812;2022-10-17T20:06:02;33.53;;;22.33;;
39266;SDS011;24967;51.154;13.812;2022-10-17T20:08:29;27.10;;;20.25;;
39266;SDS011;24967;51.154;13.812;2022-10-17T20:11:00;29.63;;;20.60;;
39266;SDS011;24967;51.154;13.812;2022-10-17T20:13:28;25.58;;;19.23;;
39266;SDS011;24967;51.154;13.812;2022-10-17T20:15:55;29.50;;;21.02;;
39266;SDS011;24967;51.154;13.812;2022-10-17T20:18:22;28.75;;;21.25;;
39266;SDS011;24967;51.154;13.812;2022-10-17T20:20:50;27.45;;;20.23;;
39266;SDS011;24967;51.154;13.812;2022-10-17T20:23:17;29.65;;;21.67;;
39266;SDS011;24967;51.154;13.812;2022-10-17T20:25:44;29.50;;;20.48;;
39266;SDS011;24967;51.154;13.812;2022-10-17T20:28:11;28.17;;;20.90;;
39266;SDS011;24967;51.154;13.812;2022-10-17T20:30:41;27.38;;;20.92;;
39266;SDS011;24967;51.154;13.812;2022-10-17T20:33:11;28.70;;;20.75;;
39266;SDS011;24967;51.154;13.812;2022-10-17T20:35:40;27.00;;;20.88;;
39266;SDS011;24967;51.154;13.812;2022-10-17T20:38:09;28.27;;;20.02;;
39266;SDS011;24967;51.154;13.812;2022-10-17T20:40:36;26.33;;;20.40;;
39266;SDS011;24967;51.154;13.812;2022-10-17T20:43:04;26.63;;;20.42;;
39266;SDS011;24967;51.154;13.812;2022-10-17T20:45:34;27.85;;;19.92;;
39266;SDS011;24967;51.154;13.812;2022-10-17T20:48:02;26.00;;;19.80;;
39266;SDS011;24967;51.154;13.812;2022-10-17T20:50:31;25.90;;;20.02;;
39266;SDS011;24967;51.154;13.812;2022-10-17T20:52:58;25.70;;;19.38;;
39266;SDS011;24967;51.154;13.812;2022-10-17T20:55:26;24.17;;;18.67;;
39266;SDS011;24967;51.154;13.812;2022-10-17T20:57:53;29.65;;;19.70;;
39266;SDS011;24967;51.154;13.812;2022-10-17T21:00:19;26.83;;;20.65;;
39266;SDS011;24967;51.154;13.812;2022-10-17T21:02:46;29.08;;;19.80;;
39266;SDS011;24967;51.154;13.812;2022-10-17T21:05:12;28.77;;;19.63;;
39266;SDS011;24967;51.154;13.812;2022-10-17T21:07:39;30.33;;;20.10;;
39266;SDS011;24967;51.154;13.812;2022-10-17T21:10:06;30.50;;;21.80;;
39266;SDS011;24967;51.154;13.812;2022-10-17T21:12:34;30.25;;;21.98;;
39266;SDS011;24967;51.154;13.812;2022-10-17T21:15:01;31.65;;;22.42;;
39266;SDS011;24967;51.154;13.812;2022-10-17T21:17:28;27.95;;;21.65;;
39266;SDS011;24967;51.154;13.812;2022-10-17T21:19:54;30.52;;;21.17;;
39266;SDS011;24967;51.154;13.812;2022-10-17T21:22:21;32.65;;;21.88;;
39266;SDS011;24967;51.154;13.812;2022-10-17T21:24:48;30.77;;;21.40;;